createdAt,value
2017-03-21T00:00:06.990Z,93.98
2017-03-21T00:01:18.233Z,90.46
2017-03-21T00:02:29.218Z,93.89
2017-03-21T00:03:40.215Z,93.6
2017-03-21T00:04:51.213Z,92.84
2017-03-21T00:06:02.205Z,93.84
2017-03-21T00:07:13.191Z,94.13
2017-03-21T00:08:24.197Z,94.03
2017-03-21T00:09:35.199Z,92.5
2017-03-21T00:10:46.249Z,90.98
2017-03-21T00:11:57.240Z,90.75
2017-03-21T00:13:08.433Z,88.65
2017-03-21T00:14:19.430Z,91.22
2017-03-21T00:15:30.437Z,91.03
2017-03-21T00:16:41.640Z,90.94
2017-03-21T00:17:52.626Z,89.89
2017-03-21T00:19:03.630Z,90.46
2017-03-21T00:20:14.636Z,87.79
2017-03-21T00:21:25.878Z,86.84
2017-03-21T00:22:36.870Z,85.99
2017-03-21T00:23:47.878Z,83.98
2017-03-21T00:24:58.869Z,85.7
2017-03-21T00:26:09.866Z,87.79
2017-03-21T00:27:20.872Z,84.84
2017-03-21T00:28:31.865Z,85.03
2017-03-21T00:29:42.859Z,84.36
2017-03-21T00:30:53.850Z,82.18
2017-03-21T00:32:04.893Z,80.46
2017-03-21T00:33:15.883Z,79.6
2017-03-21T00:34:26.879Z,83.89
2017-03-21T00:35:38.077Z,80.55
2017-03-21T00:36:49.065Z,83.13
2017-03-21T00:38:00.261Z,80.55
2017-03-21T00:39:11.262Z,81.7
2017-03-21T00:40:22.253Z,79.89
2017-03-21T00:41:33.238Z,78.94
2017-03-21T00:42:44.232Z,80.08
2017-03-21T00:43:55.233Z,78.27
2017-03-21T00:45:06.439Z,76.84
2017-03-21T00:46:17.425Z,76.37
2017-03-21T00:47:28.423Z,78.65
2017-03-21T00:48:39.413Z,80.46
2017-03-21T00:49:50.704Z,77
2017-03-21T00:51:01.699Z,78.85
2017-03-21T00:52:12.687Z,77.28
2017-03-21T00:53:23.690Z,80.33
2017-03-21T00:54:34.697Z,80.08
2017-03-21T00:55:45.693Z,80.27
2017-03-21T00:56:56.675Z,78.27
2017-03-21T00:58:07.686Z,79.51
2017-03-21T00:59:18.745Z,78.37
2017-03-21T01:00:29.756Z,79.6
2017-03-21T01:01:40.745Z,76.46
2017-03-21T01:02:51.734Z,79.51
2017-03-21T01:04:02.733Z,80.46
2017-03-21T01:05:13.737Z,78.94
2017-03-21T01:06:24.725Z,77.89
2017-03-21T01:07:35.724Z,78.27
2017-03-21T01:08:46.727Z,79.03
2017-03-21T01:09:57.783Z,79.6
2017-03-21T01:11:08.779Z,79.03
2017-03-21T01:12:19.781Z,78.94
2017-03-21T01:13:30.985Z,79.22
2017-03-21T01:14:41.978Z,79.32
2017-03-21T01:15:52.973Z,79.03
2017-03-21T01:17:03.961Z,81.23
2017-03-21T01:18:14.956Z,80.65
2017-03-21T01:19:26.559Z,80.18
2017-03-21T01:20:37.601Z,82.93
2017-03-21T01:21:48.795Z,83.32
2017-03-21T01:22:59.787Z,82.37
2017-03-21T01:24:10.992Z,78.75
2017-03-21T01:25:21.981Z,78.94
2017-03-21T01:26:32.970Z,80.65
2017-03-21T01:27:44.159Z,80.94
2017-03-21T01:28:55.356Z,75.89
2017-03-21T01:30:06.359Z,76.56
2017-03-21T01:31:17.351Z,80.27
2017-03-21T01:32:28.547Z,74.27
2017-03-21T01:33:39.542Z,79.41
2017-03-21T01:34:50.529Z,76.84
2017-03-21T01:36:01.514Z,76.75
2017-03-21T01:37:12.498Z,77.03
2017-03-21T01:38:23.748Z,78.42
2017-03-21T01:39:34.741Z,75.13
2017-03-21T01:40:45.723Z,77.13
2017-03-21T01:41:56.711Z,79.47
2017-03-21T01:43:07.699Z,79.41
2017-03-21T01:44:18.694Z,76.56
2017-03-21T01:45:29.703Z,74.75
2017-03-21T01:46:40.688Z,74.37
2017-03-21T01:47:51.724Z,80.08
2017-03-21T01:49:02.926Z,77.61
2017-03-21T01:50:13.923Z,77.8
2017-03-21T01:51:24.956Z,77.8
2017-03-21T01:52:35.952Z,80.65
2017-03-21T01:53:46.961Z,79.7
2017-03-21T01:54:58.185Z,76.75
2017-03-21T01:56:09.171Z,75.04
2017-03-21T01:57:20.159Z,79.6
2017-03-21T01:58:31.201Z,80.9
2017-03-21T01:59:42.196Z,79.13
2017-03-21T02:00:53.190Z,77.89
2017-03-21T02:02:04.185Z,76.84
2017-03-21T02:03:15.185Z,75.13
2017-03-21T02:04:26.383Z,72.08
2017-03-21T02:05:37.382Z,74.27
2017-03-21T02:06:48.368Z,78.94
2017-03-21T02:07:59.560Z,77.98
2017-03-21T02:09:11.014Z,79.41
2017-03-21T02:10:22.028Z,79.51
2017-03-21T02:11:33.225Z,80.84
2017-03-21T02:12:44.664Z,74.37
2017-03-21T02:13:55.662Z,79.03
2017-03-21T02:15:06.657Z,79.22
2017-03-21T02:16:17.688Z,78.94
2017-03-21T02:17:28.875Z,75.28
2017-03-21T02:18:40.321Z,76.27
2017-03-21T02:19:51.327Z,76.27
2017-03-21T02:21:02.330Z,81.98
2017-03-21T02:22:13.313Z,79.51
2017-03-21T02:23:24.306Z,81.7
2017-03-21T02:24:35.302Z,84.52
2017-03-21T02:25:46.500Z,86.65
2017-03-21T02:26:57.752Z,91.56
2017-03-21T02:28:08.744Z,90.8
2017-03-21T02:29:19.947Z,88.6
2017-03-21T02:30:30.955Z,86.99
2017-03-21T02:31:41.951Z,82.8
2017-03-21T02:32:52.943Z,80.13
2017-03-21T02:34:03.930Z,76.39
2017-03-21T02:35:14.926Z,74.48
2017-03-21T02:36:26.180Z,72.3
2017-03-21T02:37:37.177Z,69.44
2017-03-21T02:38:48.184Z,67.35
2017-03-21T02:39:59.183Z,64.97
2017-03-21T02:41:10.216Z,63.54
2017-03-21T02:42:21.405Z,62.21
2017-03-21T02:43:32.808Z,60.5
2017-03-21T02:44:43.808Z,59.17
2017-03-21T02:45:54.995Z,58.98
2017-03-21T02:47:06.029Z,57.52
2017-03-21T02:48:17.033Z,57.14
2017-03-21T02:49:28.025Z,56.19
2017-03-21T02:50:39.019Z,55.33
2017-03-21T02:51:50.010Z,54.57
2017-03-21T02:53:00.999Z,53.53
2017-03-21T02:54:11.985Z,52.96
2017-03-21T02:55:22.999Z,52.96
2017-03-21T02:56:34.196Z,52.58
2017-03-21T02:57:45.239Z,51.62
2017-03-21T02:58:56.232Z,51.43
2017-03-21T03:00:07.224Z,51.62
2017-03-21T03:01:18.221Z,50.68
2017-03-21T03:02:29.412Z,50.77
2017-03-21T03:03:40.411Z,50.29
2017-03-21T03:04:51.410Z,49.91
2017-03-21T03:06:02.407Z,49.54
2017-03-21T03:07:13.432Z,49.25
2017-03-21T03:08:24.430Z,49.06
2017-03-21T03:09:35.632Z,48.77
2017-03-21T03:10:46.835Z,48.39
2017-03-21T03:11:57.830Z,48.21
2017-03-21T03:13:08.838Z,48.3
2017-03-21T03:14:20.080Z,47.73
2017-03-21T03:15:31.118Z,47.54
2017-03-21T03:16:42.112Z,47.54
2017-03-21T03:17:53.096Z,47.54
2017-03-21T03:19:04.290Z,47.54
2017-03-21T03:20:15.278Z,47.06
2017-03-21T03:21:26.471Z,47.25
2017-03-21T03:22:37.474Z,46.78
2017-03-21T03:23:48.685Z,46.78
2017-03-21T03:24:59.743Z,46.3
2017-03-21T03:26:10.729Z,46.49
2017-03-21T03:27:21.928Z,46.49
2017-03-21T03:28:32.926Z,46.01
2017-03-21T03:29:43.924Z,46.2
2017-03-21T03:30:54.918Z,46.11
2017-03-21T03:32:05.916Z,46.01
2017-03-21T03:33:16.904Z,46.01
2017-03-21T03:34:27.906Z,46.11
2017-03-21T03:35:39.147Z,45.35
2017-03-21T03:36:50.145Z,45.73
2017-03-21T03:38:01.138Z,45.83
2017-03-21T03:39:12.140Z,45.54
2017-03-21T03:40:23.582Z,45.16
2017-03-21T03:41:34.617Z,45.07
2017-03-21T03:42:45.812Z,45.83
2017-03-21T03:43:56.813Z,44.87
2017-03-21T03:45:07.801Z,45.07
2017-03-21T03:46:19.243Z,44.87
2017-03-21T03:47:30.232Z,44.59
2017-03-21T03:48:41.221Z,44.31
2017-03-21T03:49:52.213Z,44.59
2017-03-21T03:51:03.415Z,44.4
2017-03-21T03:52:14.413Z,44.87
2017-03-21T03:53:25.605Z,45.07
2017-03-21T03:54:36.597Z,44.87
2017-03-21T03:55:47.788Z,44.49
2017-03-21T03:56:58.780Z,44.4
2017-03-21T03:58:09.781Z,44.28
2017-03-21T03:59:20.780Z,44.12
2017-03-21T04:00:31.781Z,43.8
2017-03-21T04:01:42.979Z,43.83
2017-03-21T04:02:53.966Z,43.43
2017-03-21T04:04:04.961Z,44.12
2017-03-21T04:05:15.958Z,43.52
2017-03-21T04:06:26.950Z,43.73
2017-03-21T04:07:38.149Z,44
2017-03-21T04:08:49.192Z,44.09
2017-03-21T04:10:00.186Z,43.9
2017-03-21T04:11:11.188Z,43.9
2017-03-21T04:12:22.187Z,44.09
2017-03-21T04:13:33.380Z,44
2017-03-21T04:14:44.372Z,44
2017-03-21T04:15:55.569Z,44
2017-03-21T04:17:06.569Z,43.9
2017-03-21T04:18:17.613Z,43.8
2017-03-21T04:19:28.612Z,43.9
2017-03-21T04:20:39.601Z,43.52
2017-03-21T04:21:50.580Z,43.24
2017-03-21T04:23:01.567Z,43.14
2017-03-21T04:24:12.770Z,43.14
2017-03-21T04:25:23.764Z,42.95
2017-03-21T04:26:34.953Z,43.05
2017-03-21T04:27:46.143Z,42.95
2017-03-21T04:28:57.199Z,42.95
2017-03-21T04:30:08.191Z,42.76
2017-03-21T04:31:19.182Z,42.67
2017-03-21T04:32:30.178Z,42.67
2017-03-21T04:33:41.386Z,42.86
2017-03-21T04:34:52.381Z,42.57
2017-03-21T04:36:03.376Z,42.86
2017-03-21T04:37:14.367Z,43.14
2017-03-21T04:38:25.368Z,43.24
2017-03-21T04:39:36.616Z,43.14
2017-03-21T04:40:47.843Z,43.24
2017-03-21T04:41:58.843Z,43.24
2017-03-21T04:43:10.047Z,43.14
2017-03-21T04:44:21.246Z,43.52
2017-03-21T04:45:32.229Z,43.24
2017-03-21T04:46:43.234Z,43.05
2017-03-21T04:47:54.426Z,42.95
2017-03-21T04:49:05.618Z,42.86
2017-03-21T04:50:16.614Z,42.95
2017-03-21T04:51:27.603Z,42.95
2017-03-21T04:52:38.611Z,43.05
2017-03-21T04:53:49.607Z,43.14
2017-03-21T04:55:00.601Z,43.24
2017-03-21T04:56:11.849Z,43.14
2017-03-21T04:57:22.844Z,43.43
2017-03-21T04:58:33.836Z,43.8
2017-03-21T04:59:44.841Z,43.71
2017-03-21T05:00:56.044Z,43.62
2017-03-21T05:02:07.433Z,43.52
2017-03-21T05:03:18.421Z,43.43
2017-03-21T05:04:29.421Z,43.69
2017-03-21T05:05:40.918Z,44.17
2017-03-21T05:06:51.907Z,43.98
2017-03-21T05:08:02.895Z,43.79
2017-03-21T05:09:13.905Z,43.88
2017-03-21T05:10:25.111Z,44.07
2017-03-21T05:11:36.092Z,43.69
2017-03-21T05:12:47.079Z,43.79
2017-03-21T05:13:58.080Z,43.5
2017-03-21T05:15:09.065Z,43.5
2017-03-21T05:16:20.300Z,43.6
2017-03-21T05:17:31.693Z,43.5
2017-03-21T05:18:42.710Z,43.6
2017-03-21T05:19:53.721Z,43.69
2017-03-21T05:21:04.707Z,43.98
2017-03-21T05:22:15.694Z,43.88
2017-03-21T05:23:26.883Z,43.69
2017-03-21T05:24:37.889Z,43.5
2017-03-21T05:25:49.085Z,43.31
2017-03-21T05:27:00.128Z,43.12
2017-03-21T05:28:11.118Z,42.74
2017-03-21T05:29:22.117Z,42.74
2017-03-21T05:30:33.116Z,42.36
2017-03-21T05:31:44.344Z,41.89
2017-03-21T05:32:55.332Z,41.69
2017-03-21T05:34:06.337Z,41.69
2017-03-21T05:35:17.331Z,41.41
2017-03-21T05:36:28.731Z,41.13
2017-03-21T05:37:39.922Z,41.22
2017-03-21T05:38:50.926Z,40.46
2017-03-21T05:40:02.135Z,40.46
2017-03-21T05:41:13.124Z,40.46
2017-03-21T05:42:24.117Z,40.46
2017-03-21T05:43:35.108Z,40.46
2017-03-21T05:44:46.105Z,40.37
2017-03-21T05:45:57.303Z,40.27
2017-03-21T05:47:08.694Z,40.37
2017-03-21T05:48:19.682Z,40.56
2017-03-21T05:49:30.676Z,40.37
2017-03-21T05:50:41.671Z,40.17
2017-03-21T05:51:52.670Z,40.27
2017-03-21T05:53:03.717Z,40.27
2017-03-21T05:54:14.714Z,40.08
2017-03-21T05:55:25.911Z,40.17
2017-03-21T05:56:36.899Z,39.98
2017-03-21T05:57:48.090Z,40.01
2017-03-21T05:58:59.086Z,40.1
2017-03-21T06:00:10.080Z,40.01
2017-03-21T06:01:21.069Z,40.01
2017-03-21T06:02:32.056Z,39.62
2017-03-21T06:03:43.312Z,40.01
2017-03-21T06:04:54.305Z,39.91
2017-03-21T06:06:05.289Z,39.72
2017-03-21T06:07:16.277Z,39.81
2017-03-21T06:08:27.304Z,39.72
2017-03-21T06:09:38.308Z,40.01
2017-03-21T06:10:49.290Z,40.29
2017-03-21T06:12:00.283Z,40.29
2017-03-21T06:13:11.486Z,40.29
2017-03-21T06:14:22.935Z,40.1
2017-03-21T06:15:33.929Z,40.01
2017-03-21T06:16:44.924Z,40.1
2017-03-21T06:17:55.909Z,39.91
2017-03-21T06:19:06.901Z,39.72
2017-03-21T06:20:18.140Z,39.72
2017-03-21T06:21:29.125Z,40.2
2017-03-21T06:22:40.123Z,40.5
2017-03-21T06:23:51.325Z,40.88
2017-03-21T06:25:02.522Z,42.4
2017-03-21T06:26:13.710Z,42.4
2017-03-21T06:27:24.699Z,42.6
2017-03-21T06:28:35.702Z,42.88
2017-03-21T06:29:46.695Z,44.21
2017-03-21T06:30:57.689Z,45.66
2017-03-21T06:32:08.734Z,46.14
2017-03-21T06:33:19.747Z,46.51
2017-03-21T06:34:30.737Z,47.75
2017-03-21T06:35:41.727Z,48.11
2017-03-21T06:36:52.915Z,47.54
2017-03-21T06:38:03.906Z,47.34
2017-03-21T06:39:14.908Z,47.63
2017-03-21T06:40:25.911Z,47.54
2017-03-21T06:41:36.951Z,48.68
2017-03-21T06:42:47.939Z,48.58
2017-03-21T06:43:58.935Z,46.59
2017-03-21T06:45:09.926Z,48.11
2017-03-21T06:46:20.909Z,46.3
2017-03-21T06:47:31.904Z,46.59
2017-03-21T06:48:42.900Z,47.44
2017-03-21T06:49:54.106Z,46.59
2017-03-21T06:51:05.299Z,46.2
2017-03-21T06:52:16.539Z,45.83
2017-03-21T06:53:27.541Z,48.39
2017-03-21T06:54:38.743Z,48.87
2017-03-21T06:55:49.743Z,49.35
2017-03-21T06:57:00.736Z,49.06
2017-03-21T06:58:11.733Z,50.58
2017-03-21T06:59:22.728Z,50.2
2017-03-21T07:00:33.725Z,50.48
2017-03-21T07:01:44.714Z,49.44
2017-03-21T07:02:55.756Z,51.46
2017-03-21T07:04:06.754Z,51.46
2017-03-21T07:05:17.742Z,51.46
2017-03-21T07:06:28.729Z,51.37
2017-03-21T07:07:39.943Z,50.29
2017-03-21T07:08:50.951Z,50.1
2017-03-21T07:10:01.947Z,49.44
2017-03-21T07:11:12.937Z,50.96
2017-03-21T07:12:24.133Z,49.06
2017-03-21T07:13:35.123Z,49.44
2017-03-21T07:14:46.317Z,50.68
2017-03-21T07:15:57.299Z,48.68
2017-03-21T07:17:08.288Z,49.35
2017-03-21T07:18:19.293Z,51.56
2017-03-21T07:19:30.293Z,48.8
2017-03-21T07:20:41.341Z,50.23
2017-03-21T07:21:52.530Z,51.65
2017-03-21T07:23:03.527Z,49.18
2017-03-21T07:24:14.537Z,48.61
2017-03-21T07:25:25.531Z,48.58
2017-03-21T07:26:36.520Z,50.7
2017-03-21T07:27:47.521Z,53.55
2017-03-21T07:28:58.718Z,52.03
2017-03-21T07:30:09.705Z,54.22
2017-03-21T07:31:20.693Z,54.13
2017-03-21T07:32:31.885Z,54.69
2017-03-21T07:33:42.874Z,54.69
2017-03-21T07:34:53.876Z,56.51
2017-03-21T07:36:04.911Z,54.98
2017-03-21T07:37:15.897Z,56.31
2017-03-21T07:38:27.088Z,55.27
2017-03-21T07:39:38.100Z,56.6
2017-03-21T07:40:49.334Z,56.03
2017-03-21T07:42:00.336Z,59.83
2017-03-21T07:43:11.340Z,60.78
2017-03-21T07:44:22.341Z,60.31
2017-03-21T07:45:33.378Z,61.55
2017-03-21T07:46:44.411Z,62.4
2017-03-21T07:47:55.405Z,62.69
2017-03-21T07:49:06.399Z,63.92
2017-03-21T07:50:17.399Z,66.49
2017-03-21T07:51:28.639Z,66.87
2017-03-21T07:52:39.646Z,67.25
2017-03-21T07:53:50.847Z,66.91
2017-03-21T07:55:01.847Z,69.29
2017-03-21T07:56:12.846Z,74.52
2017-03-21T07:57:24.041Z,73.85
2017-03-21T07:58:35.046Z,74.14
2017-03-21T07:59:46.041Z,76.61
2017-03-21T08:00:57.036Z,76.61
2017-03-21T08:02:08.030Z,79.09
2017-03-21T08:03:19.488Z,79.38
2017-03-21T08:04:30.487Z,78.33
2017-03-21T08:05:41.483Z,82.32
2017-03-21T08:06:52.474Z,87.89
2017-03-21T08:08:03.482Z,88.93
2017-03-21T08:09:14.488Z,91.03
2017-03-21T08:10:25.496Z,93.7
2017-03-21T08:11:36.696Z,91.31
2017-03-21T08:12:47.933Z,93.22
2017-03-21T08:13:59.135Z,93.98
2017-03-21T08:15:10.128Z,93.89
2017-03-21T08:16:21.324Z,99.99
2017-03-21T08:17:32.318Z,99.84
2017-03-21T08:18:43.721Z,99.99
2017-03-21T08:19:54.736Z,99.99
2017-03-21T08:21:05.779Z,96.89
2017-03-21T08:22:16.779Z,97.56
2017-03-21T08:23:28.221Z,99.99
2017-03-21T08:24:39.431Z,99.99
2017-03-21T08:25:50.428Z,96.84
2017-03-21T08:27:01.461Z,99.99
2017-03-21T08:28:12.465Z,99.99
2017-03-21T08:29:23.669Z,99.6
2017-03-21T08:30:34.670Z,99.79
2017-03-21T08:31:45.666Z,98.65
2017-03-21T08:32:56.663Z,99.99
2017-03-21T08:34:07.717Z,99.99
2017-03-21T08:35:18.918Z,99.99
2017-03-21T08:36:29.920Z,99.99
2017-03-21T08:37:41.111Z,99.99
2017-03-21T08:38:52.306Z,99.99
2017-03-21T08:40:03.302Z,99.99
2017-03-21T08:41:14.289Z,99.99
2017-03-21T08:42:25.289Z,99.99
2017-03-21T08:43:36.487Z,99.99
2017-03-21T08:44:47.494Z,99.99
2017-03-21T08:45:58.498Z,99.99
2017-03-21T08:47:09.498Z,99.99
2017-03-21T08:48:20.500Z,99.99
2017-03-21T08:49:31.699Z,99.99
2017-03-21T08:50:42.698Z,99.99
2017-03-21T08:51:53.699Z,99.99
2017-03-21T08:53:04.697Z,99.99
2017-03-21T08:54:15.705Z,99.99
2017-03-21T08:55:26.706Z,99.99
2017-03-21T08:56:37.709Z,99.99
2017-03-21T08:57:48.719Z,99.99
2017-03-21T08:58:59.717Z,99.99
2017-03-21T09:00:10.972Z,99.99
2017-03-21T09:01:21.967Z,99.99
2017-03-21T09:02:32.972Z,99.99
2017-03-21T09:03:44.186Z,99.99
2017-03-21T09:04:55.203Z,99.99
2017-03-21T09:06:06.400Z,99.99
2017-03-21T09:07:17.402Z,99.99
2017-03-21T09:08:28.405Z,99.99
2017-03-21T09:09:39.416Z,99.99
2017-03-21T09:10:50.662Z,99.99
2017-03-21T09:12:01.659Z,99.99
2017-03-21T09:13:12.850Z,99.99
2017-03-21T09:14:23.846Z,99.99
2017-03-21T09:15:34.850Z,99.99
2017-03-21T09:16:45.853Z,99.99
2017-03-21T09:17:56.859Z,99.99
2017-03-21T09:19:07.862Z,99.99
2017-03-21T09:20:18.869Z,99.99
2017-03-21T09:21:29.887Z,99.99
2017-03-21T09:22:41.085Z,99.99
2017-03-21T09:23:52.078Z,99.99
2017-03-21T09:25:03.085Z,99.99
2017-03-21T09:26:14.083Z,99.99
2017-03-21T09:27:25.466Z,99.99
2017-03-21T09:28:36.513Z,99.99
2017-03-21T09:29:47.714Z,99.99
2017-03-21T09:30:58.720Z,99.99
2017-03-21T09:32:09.715Z,99.99
2017-03-21T09:33:20.706Z,99.99
2017-03-21T09:34:31.706Z,99.99
2017-03-21T09:35:42.707Z,99.99
2017-03-21T09:36:53.703Z,99.99
2017-03-21T09:38:04.740Z,99.99
2017-03-21T09:39:15.932Z,99.99
2017-03-21T09:40:26.933Z,99.99
2017-03-21T09:41:37.936Z,99.99
2017-03-21T09:42:48.930Z,99.99
2017-03-21T09:43:59.927Z,99.99
2017-03-21T09:45:10.923Z,99.99
2017-03-21T09:46:22.121Z,99.99
2017-03-21T09:47:33.107Z,99.99
2017-03-21T09:48:44.160Z,99.99
2017-03-21T09:49:55.160Z,99.99
2017-03-21T09:51:06.176Z,99.99
2017-03-21T09:52:17.170Z,99.99
2017-03-21T09:53:28.363Z,99.99
2017-03-21T09:54:39.407Z,99.99
2017-03-21T09:55:50.605Z,99.99
2017-03-21T09:57:01.606Z,99.99
2017-03-21T09:58:12.597Z,99.99
2017-03-21T09:59:23.583Z,99.99
2017-03-21T10:00:35.179Z,99.99
2017-03-21T10:01:46.181Z,99.99
2017-03-21T10:02:57.175Z,99.99
2017-03-21T10:04:08.162Z,99.99
2017-03-21T10:05:19.415Z,99.99
2017-03-21T10:06:30.409Z,99.99
2017-03-21T10:07:41.401Z,99.99
2017-03-21T10:08:52.394Z,99.99
2017-03-21T10:10:03.382Z,99.99
2017-03-21T10:11:14.376Z,99.99
2017-03-21T10:12:25.374Z,99.99
2017-03-21T10:13:36.372Z,99.99
2017-03-21T10:14:47.368Z,99.99
2017-03-21T10:15:58.408Z,99.99
2017-03-21T10:17:09.613Z,99.99
2017-03-21T10:18:20.804Z,99.99
2017-03-21T10:19:31.811Z,99.99
2017-03-21T10:20:42.809Z,99.99
2017-03-21T10:21:53.803Z,99.99
2017-03-21T10:23:04.791Z,99.99
2017-03-21T10:24:15.786Z,99.99
2017-03-21T10:25:26.787Z,99.99
2017-03-21T10:26:37.823Z,99.99
2017-03-21T10:27:48.813Z,99.99
2017-03-21T10:28:59.811Z,99.99
2017-03-21T10:30:10.801Z,99.99
2017-03-21T10:31:21.982Z,99.99
2017-03-21T10:32:33.018Z,99.99
2017-03-21T10:33:44.001Z,99.99
2017-03-21T10:34:54.992Z,99.99
2017-03-21T10:36:05.987Z,99.99
2017-03-21T10:37:16.978Z,99.99
2017-03-21T10:38:28.386Z,99.99
2017-03-21T10:39:39.381Z,99.99
2017-03-21T10:40:50.372Z,99.99
2017-03-21T10:42:01.363Z,99.99
2017-03-21T10:43:12.554Z,99.99
2017-03-21T10:44:24.004Z,99.99
2017-03-21T10:45:34.998Z,99.99
2017-03-21T10:46:46.399Z,99.99
2017-03-21T10:47:57.393Z,99.99
2017-03-21T10:49:08.379Z,99.99
2017-03-21T10:50:19.363Z,99.99
2017-03-21T10:51:30.354Z,99.99
2017-03-21T10:52:41.337Z,99.99
2017-03-21T10:53:52.579Z,99.99
2017-03-21T10:55:03.573Z,99.99
2017-03-21T10:56:14.565Z,99.99
2017-03-21T10:57:25.558Z,99.99
2017-03-21T10:58:36.543Z,99.99
2017-03-21T10:59:47.785Z,99.99
2017-03-21T11:00:58.776Z,99.99
2017-03-21T11:02:09.965Z,99.99
2017-03-21T11:03:20.960Z,99.99
2017-03-21T11:04:32.047Z,99.99
2017-03-21T11:05:43.042Z,99.99
2017-03-21T11:06:54.042Z,99.99
2017-03-21T11:08:05.028Z,99.99
2017-03-21T11:09:16.022Z,99.99
2017-03-21T11:10:27.262Z,99.99
2017-03-21T11:11:38.253Z,99.99
2017-03-21T11:12:49.448Z,99.99
2017-03-21T11:14:00.641Z,99.99
2017-03-21T11:15:11.632Z,99.99
2017-03-21T11:16:22.622Z,99.99
2017-03-21T11:17:33.616Z,99.99
2017-03-21T11:18:44.610Z,99.99
2017-03-21T11:19:55.610Z,99.99
2017-03-21T11:21:06.603Z,99.99
2017-03-21T11:22:17.840Z,99.99
2017-03-21T11:23:28.821Z,99.99
2017-03-21T11:24:39.850Z,99.99
2017-03-21T11:25:50.843Z,99.99
2017-03-21T11:27:01.828Z,99.99
2017-03-21T11:28:12.815Z,99.99
2017-03-21T11:29:23.815Z,99.99
2017-03-21T11:30:35.008Z,99.99
2017-03-21T11:31:46.055Z,99.99
2017-03-21T11:32:57.093Z,99.99
2017-03-21T11:34:08.083Z,99.99
2017-03-21T11:35:19.073Z,99.99
2017-03-21T11:36:30.069Z,99.99
2017-03-21T11:37:41.253Z,99.99
2017-03-21T11:38:52.262Z,99.99
2017-03-21T11:40:03.255Z,99.99
2017-03-21T11:41:14.252Z,99.99
2017-03-21T11:42:25.288Z,99.99
2017-03-21T11:43:36.276Z,99.99
2017-03-21T11:44:47.508Z,99.99
2017-03-21T11:45:58.704Z,99.99
2017-03-21T11:47:09.703Z,99.99
2017-03-21T11:48:20.691Z,99.99
2017-03-21T11:49:31.681Z,99.99
2017-03-21T11:50:42.682Z,99.99
2017-03-21T11:51:53.692Z,99.99
2017-03-21T11:53:04.718Z,99.99
2017-03-21T11:54:15.710Z,99.99
2017-03-21T11:55:26.707Z,99.99
2017-03-21T11:56:37.907Z,99.99
2017-03-21T11:57:48.896Z,99.99
2017-03-21T11:58:59.885Z,99.99
2017-03-21T12:00:10.879Z,99.99
2017-03-21T12:01:21.919Z,99.99
2017-03-21T12:02:33.109Z,99.99
2017-03-21T12:03:44.171Z,99.99
2017-03-21T12:04:55.361Z,99.99
2017-03-21T12:06:06.355Z,99.99
2017-03-21T12:07:17.346Z,99.99
2017-03-21T12:08:28.757Z,99.99
2017-03-21T12:09:39.949Z,99.99
2017-03-21T12:10:51.146Z,99.99
2017-03-21T12:12:02.146Z,99.99
2017-03-21T12:13:13.395Z,99.99
2017-03-21T12:14:24.853Z,99.99
2017-03-21T12:15:35.858Z,99.99
2017-03-21T12:16:46.861Z,99.99
2017-03-21T12:17:57.857Z,99.66
2017-03-21T12:19:08.859Z,92.79
2017-03-21T12:20:19.859Z,92.02
2017-03-21T12:21:31.056Z,99.99
2017-03-21T12:22:42.052Z,98.13
2017-03-21T12:23:53.242Z,94.79
2017-03-21T12:25:04.494Z,97.66
2017-03-21T12:26:15.731Z,96.08
2017-03-21T12:27:26.731Z,93.88
2017-03-21T12:28:38.140Z,90.16
2017-03-21T12:29:49.133Z,87.96
2017-03-21T12:31:00.160Z,89.78
2017-03-21T12:32:11.155Z,95.41
2017-03-21T12:33:22.164Z,93.79
2017-03-21T12:34:33.362Z,97.8
2017-03-21T12:35:44.364Z,92.31
2017-03-21T12:36:55.358Z,94.98
2017-03-21T12:38:06.348Z,98.42
2017-03-21T12:39:17.350Z,99.99
2017-03-21T12:40:28.352Z,99.76
2017-03-21T12:41:39.401Z,96.89
2017-03-21T12:42:50.406Z,99.99
2017-03-21T12:44:01.409Z,99.99
2017-03-21T12:45:12.416Z,99.99
2017-03-21T12:46:23.410Z,99.99
2017-03-21T12:47:34.403Z,99.14
2017-03-21T12:48:45.400Z,94.41
2017-03-21T12:49:56.602Z,95.27
2017-03-21T12:51:07.656Z,93.55
2017-03-21T12:52:18.654Z,97.37
2017-03-21T12:53:29.653Z,94.7
2017-03-21T12:54:40.652Z,92.11
2017-03-21T12:55:51.663Z,95.27
2017-03-21T12:57:02.661Z,92.69
2017-03-21T12:58:13.853Z,93.16
2017-03-21T12:59:24.854Z,94.7
2017-03-21T13:00:35.852Z,92.69
2017-03-21T13:01:47.099Z,93.93
2017-03-21T13:02:58.093Z,89.92
2017-03-21T13:04:09.094Z,96.51
2017-03-21T13:05:20.083Z,94.79
2017-03-21T13:06:31.103Z,99.23
2017-03-21T13:07:42.101Z,94.93
2017-03-21T13:08:53.099Z,97.52
2017-03-21T13:10:04.154Z,96.27
2017-03-21T13:11:15.149Z,99.99
2017-03-21T13:12:26.145Z,99.99
2017-03-21T13:13:37.141Z,99.08
2017-03-21T13:14:48.142Z,99.99
2017-03-21T13:15:59.139Z,99.99
2017-03-21T13:17:10.137Z,94.51
2017-03-21T13:18:21.146Z,99.99
2017-03-21T13:19:32.143Z,99.99
2017-03-21T13:20:43.342Z,99.13
2017-03-21T13:21:54.334Z,99.99
2017-03-21T13:23:05.385Z,98.18
2017-03-21T13:24:16.415Z,99.99
2017-03-21T13:25:27.408Z,95.98
2017-03-21T13:26:38.396Z,88.35
2017-03-21T13:27:49.590Z,93.98
2017-03-21T13:29:00.598Z,95.03
2017-03-21T13:30:11.598Z,93.98
2017-03-21T13:31:22.596Z,93.22
2017-03-21T13:32:33.591Z,95.32
2017-03-21T13:33:44.637Z,99.99
2017-03-21T13:34:55.624Z,97.61
2017-03-21T13:36:06.820Z,90.11
2017-03-21T13:37:17.809Z,96.03
2017-03-21T13:38:28.796Z,85.91
2017-03-21T13:39:39.997Z,87.54
2017-03-21T13:40:50.990Z,89.54
2017-03-21T13:42:01.980Z,90.69
2017-03-21T13:43:12.978Z,96.03
2017-03-21T13:44:24.018Z,94.03
2017-03-21T13:45:35.001Z,93.36
2017-03-21T13:46:46.191Z,85.91
2017-03-21T13:47:57.188Z,83.62
2017-03-21T13:49:08.380Z,87.35
2017-03-21T13:50:19.380Z,83.24
2017-03-21T13:51:30.371Z,83.43
2017-03-21T13:52:41.365Z,81.81
2017-03-21T13:53:52.367Z,84.86
2017-03-21T13:55:03.359Z,81.62
2017-03-21T13:56:14.366Z,78.37
2017-03-21T13:57:25.362Z,80.28
2017-03-21T13:58:36.354Z,86.3
2017-03-21T13:59:47.339Z,81.81
2017-03-21T14:00:58.336Z,81.81
2017-03-21T14:02:09.340Z,83.05
2017-03-21T14:03:20.330Z,84.77
2017-03-21T14:04:31.319Z,86.49
2017-03-21T14:05:42.370Z,84.77
2017-03-21T14:06:53.393Z,86.58
2017-03-21T14:08:04.384Z,84.48
2017-03-21T14:09:15.579Z,84.86
2017-03-21T14:10:27.042Z,86.77
2017-03-21T14:11:38.234Z,78.75
2017-03-21T14:12:49.424Z,75.03
2017-03-21T14:14:00.621Z,80.28
2017-03-21T14:15:12.017Z,79.43
2017-03-21T14:16:23.209Z,78.37
2017-03-21T14:17:34.202Z,78.28
2017-03-21T14:18:45.198Z,80.28
2017-03-21T14:19:56.410Z,84.96
2017-03-21T14:21:07.857Z,85.05
2017-03-21T14:22:18.847Z,78.66
2017-03-21T14:23:29.851Z,78.28
2017-03-21T14:24:40.836Z,82.06
2017-03-21T14:25:51.826Z,81.01
2017-03-21T14:27:02.823Z,85.49
2017-03-21T14:28:13.849Z,84.63
2017-03-21T14:29:25.049Z,86.73
2017-03-21T14:30:36.290Z,86.16
2017-03-21T14:31:47.285Z,82.63
2017-03-21T14:32:58.276Z,86.06
2017-03-21T14:34:09.275Z,83.11
2017-03-21T14:35:20.264Z,81.58
2017-03-21T14:36:31.306Z,84.06
2017-03-21T14:37:42.301Z,78.52
2017-03-21T14:38:53.304Z,76.9
2017-03-21T14:40:04.313Z,76.14
2017-03-21T14:41:15.495Z,77.95
2017-03-21T14:42:26.487Z,78.52
2017-03-21T14:43:37.687Z,82.72
2017-03-21T14:44:48.728Z,81.86
2017-03-21T14:45:59.933Z,76.62
2017-03-21T14:47:10.981Z,81.77
2017-03-21T14:48:21.976Z,85.21
2017-03-21T14:49:33.164Z,80.91
2017-03-21T14:50:44.162Z,82.63
2017-03-21T14:51:55.158Z,84.69
2017-03-21T14:53:06.173Z,80.39
2017-03-21T14:54:17.181Z,85.93
2017-03-21T14:55:28.182Z,80.91
2017-03-21T14:56:39.181Z,79
2017-03-21T14:57:50.366Z,77.28
2017-03-21T14:59:01.360Z,78.72
2017-03-21T15:00:12.361Z,86.35
2017-03-21T15:01:23.349Z,83.29
2017-03-21T15:02:34.346Z,80.62
2017-03-21T15:03:45.549Z,84.25
2017-03-21T15:04:56.803Z,82.43
2017-03-21T15:06:07.884Z,80.01
2017-03-21T15:07:19.066Z,82.87
2017-03-21T15:08:30.061Z,82.3
2017-03-21T15:09:41.044Z,82.01
2017-03-21T15:10:52.027Z,76.96
2017-03-21T15:12:03.036Z,77.82
2017-03-21T15:13:14.229Z,84.2
2017-03-21T15:14:25.281Z,79.63
2017-03-21T15:15:36.486Z,86.59
2017-03-21T15:16:47.676Z,84.59
2017-03-21T15:17:58.674Z,80.3